Time;durP1;ratioP1;P1;durP2;ratioP2;P2;SDS_P1;SDS_P2;PMS_P1;PMS_P2;Temp;Humidity;BMP_temperature;BMP_pressure;BME280_temperature;BME280_humidity;BME280_pressure;Samples;Min_cycle;Max_cycle;Signal;HPM_P1;HPM_P2
2022/08/16 00:01:54;;;;;;;;;;;21.20;99.90;;;;;;5068658;28;19935;-84
2022/08/16 00:04:44;;;;;;;;;;;21.20;99.90;;;;;;5064956;28;19924;-84
2022/08/16 00:07:10;;;;;;;;;;;21.20;99.90;;;;;;5061319;28;20392;-84
2022/08/16 00:09:36;;;;;;;;;;;21.20;99.90;;;;;;5062663;28;19932;-82
2022/08/16 00:12:03;;;;;;;;;;;21.10;99.90;;;;;;5071991;28;20338;-82
2022/08/16 00:14:33;;;;;;;;;;;21.20;99.90;;;;;;5055613;28;19955;-82
2022/08/16 00:16:59;;;;;;;;;;;21.20;99.90;;;;;;5075913;28;19928;-81
2022/08/16 00:19:32;;;;;;;;;;;21.10;99.90;;;;;;5054356;28;19924;-83
2022/08/16 00:21:58;;;;;;;;;;;21.10;99.90;;;;;;5075438;28;19924;-81
2022/08/16 00:24:47;;;;;;;;;;;21.10;99.90;;;;;;5050570;28;20469;-82
2022/08/16 00:27:22;;;;;;;;;;;21.10;99.90;;;;;;5068860;28;19935;-82
2022/08/16 00:29:49;;;;;;;;;;;21.10;99.90;;;;;;5055765;28;20561;-81
2022/08/16 00:32:35;;;;;;;;;;;21.10;99.90;;;;;;5067622;28;20477;-82
2022/08/16 00:35:01;;;;;;;;;;;21.10;99.90;;;;;;5052311;28;20027;-84
2022/08/16 00:37:45;;;;;;;;;;;21.00;99.90;;;;;;5067777;28;20039;-83
2022/08/16 00:40:25;;;;;;;;;;;21.00;99.90;;;;;;5066694;28;19925;-82
2022/08/16 00:42:53;;;;;;;;;;;21.00;99.90;;;;;;5060405;28;19924;-82
2022/08/16 00:45:56;;;;;;;;;;;;;;;;;;;;;
2022/08/16 00:48:29;;;;;;;;;;;21.00;99.90;;;;;;5067423;28;20285;-83
2022/08/16 00:50:54;;;;;;;;;;;21.00;99.90;;;;;;5064102;28;19978;-83
2022/08/16 00:53:20;;;;;;;;;;;21.00;99.90;;;;;;5027692;28;19959;-85
2022/08/16 00:55:52;;;;;;;;;;;21.00;99.90;;;;;;5021810;28;22352;-82
2022/08/16 00:58:19;;;;;;;;;;;21.00;99.90;;;;;;5067940;28;19970;-84
2022/08/16 01:00:46;;;;;;;;;;;21.00;99.90;;;;;;5069013;28;19972;-82
2022/08/16 01:03:16;;;;;;;;;;;20.90;99.90;;;;;;5068127;28;19925;-82
2022/08/16 01:05:44;;;;;;;;;;;20.90;99.90;;;;;;5074948;28;19935;-83
2022/08/16 01:08:12;;;;;;;;;;;20.90;99.90;;;;;;5063315;28;19935;-82
2022/08/16 01:10:40;;;;;;;;;;;20.90;99.90;;;;;;5060175;28;19935;-83
2022/08/16 01:13:10;;;;;;;;;;;20.90;99.90;;;;;;5068451;28;19928;-82
2022/08/16 01:15:40;;;;;;;;;;;21.00;99.90;;;;;;5051201;28;19932;-84
2022/08/16 01:18:20;;;;;;;;;;;21.00;99.90;;;;;;5055314;28;19955;-82
2022/08/16 01:21:06;;;;;;;;;;;21.00;99.90;;;;;;5062837;28;19929;-83
2022/08/16 01:23:56;;;;;;;;;;;21.00;99.90;;;;;;5045337;28;19988;-81
2022/08/16 01:26:25;;;;;;;;;;;21.00;99.90;;;;;;5065909;28;19935;-81
2022/08/16 01:28:52;;;;;;;;;;;21.00;99.90;;;;;;5067056;28;19931;-81
2022/08/16 01:31:21;;;;;;;;;;;20.90;99.90;;;;;;5072162;28;20405;-81
2022/08/16 01:33:57;;;;;;;;;;;20.90;99.90;;;;;;5049448;28;19928;-81
2022/08/16 01:36:41;;;;;;;;;;;20.90;99.90;;;;;;5074877;28;19971;-82
2022/08/16 01:39:12;;;;;;;;;;;20.90;99.90;;;;;;5051812;28;19973;-83
2022/08/16 01:41:39;;;;;;;;;;;20.80;99.90;;;;;;5056301;28;20133;-84
2022/08/16 01:44:08;;;;;;;;;;;20.90;99.90;;;;;;5061686;28;19939;-82
2022/08/16 01:46:39;;;;;;;;;;;20.80;99.90;;;;;;5062233;28;19939;-83
2022/08/16 01:49:11;;;;;;;;;;;20.80;99.90;;;;;;5047763;28;19935;-82
2022/08/16 01:51:39;;;;;;;;;;;20.70;99.90;;;;;;5057819;28;20007;-81
2022/08/16 01:54:11;;;;;;;;;;;20.70;99.90;;;;;;5071517;28;20036;-82
2022/08/16 01:56:56;;;;;;;;;;;20.70;99.90;;;;;;5047101;28;20048;-81
2022/08/16 02:02:54;;;;;;;;;;;20.30;99.90;;;;;;5048674;28;19924;-84
2022/08/16 02:08:47;;;;;;;;;;;20.60;99.90;;;;;;5470331;22;20020;-85
2022/08/16 02:11:15;;;;;;;;;;;20.60;99.90;;;;;;5044781;28;20013;-83
2022/08/16 02:13:41;;;;;;;;;;;20.60;99.90;;;;;;5043285;28;19924;-84
2022/08/16 02:16:08;;;;;;;;;;;20.60;99.90;;;;;;5065916;28;19934;-82
2022/08/16 02:18:34;;;;;;;;;;;20.60;99.90;;;;;;5061842;28;19971;-83
2022/08/16 02:21:00;;;;;;;;;;;20.60;99.90;;;;;;5056725;28;20381;-84
2022/08/16 02:23:27;;;;;;;;;;;20.60;99.90;;;;;;5039990;28;19929;-84
2022/08/16 02:25:53;;;;;;;;;;;20.60;99.90;;;;;;5051074;28;19931;-84
2022/08/16 02:28:19;;;;;;;;;;;20.60;99.90;;;;;;5035930;28;19923;-84
2022/08/16 02:30:45;;;;;;;;;;;20.50;99.90;;;;;;5051976;28;19982;-84
2022/08/16 02:33:11;;;;;;;;;;;20.50;99.90;;;;;;5052980;28;19928;-84
2022/08/16 02:35:39;;;;;;;;;;;20.50;99.90;;;;;;5056781;28;20645;-84
2022/08/16 02:38:05;;;;;;;;;;;20.50;99.90;;;;;;5064343;28;20336;-84
2022/08/16 02:40:31;;;;;;;;;;;20.50;99.90;;;;;;5055791;28;19924;-85
2022/08/16 02:42:57;;;;;;;;;;;20.50;99.90;;;;;;5045218;28;19975;-84
2022/08/16 02:45:26;;;;;;;;;;;20.50;99.90;;;;;;5040186;28;19932;-90
2022/08/16 02:47:53;;;;;;;;;;;20.50;99.90;;;;;;5071789;28;20069;-81
2022/08/16 02:50:19;;;;;;;;;;;20.50;99.90;;;;;;5068010;28;19971;-84
2022/08/16 02:52:44;;;;;;;;;;;20.50;99.90;;;;;;5062853;28;19936;-83
2022/08/16 02:55:10;;;;;;;;;;;20.50;99.90;;;;;;5049852;28;19955;-83
2022/08/16 02:57:37;;;;;;;;;;;20.50;99.90;;;;;;5054865;28;20019;-82
2022/08/16 03:00:08;;;;;;;;;;;20.50;99.90;;;;;;5053246;28;20462;-85
2022/08/16 03:02:34;;;;;;;;;;;20.50;99.90;;;;;;5068170;28;20554;-81
2022/08/16 03:05:00;;;;;;;;;;;20.40;99.90;;;;;;5042934;28;19951;-81
2022/08/16 03:07:25;;;;;;;;;;;20.50;99.90;;;;;;5054678;28;19959;-83
2022/08/16 03:09:51;;;;;;;;;;;20.40;99.90;;;;;;5054124;28;20414;-82
2022/08/16 03:12:18;;;;;;;;;;;20.40;99.90;;;;;;5023546;28;20318;-83
2022/08/16 03:14:45;;;;;;;;;;;20.40;99.90;;;;;;5017135;28;19958;-82
2022/08/16 03:17:11;;;;;;;;;;;20.40;99.90;;;;;;5039138;28;20383;-82
2022/08/16 03:19:37;;;;;;;;;;;20.40;99.90;;;;;;5034703;28;19928;-81
2022/08/16 03:22:03;;;;;;;;;;;20.40;99.90;;;;;;5018543;28;19972;-81
2022/08/16 03:24:28;;;;;;;;;;;20.40;99.90;;;;;;5034958;28;19925;-81
2022/08/16 03:26:56;;;;;;;;;;;20.40;99.90;;;;;;5029695;28;20074;-82
2022/08/16 03:29:22;;;;;;;;;;;20.30;99.90;;;;;;5049757;28;19924;-81
2022/08/16 03:31:48;;;;;;;;;;;20.30;99.90;;;;;;5033015;28;20299;-83
2022/08/16 03:34:14;;;;;;;;;;;20.30;99.90;;;;;;5047419;28;19925;-83
2022/08/16 03:36:40;;;;;;;;;;;20.30;99.90;;;;;;5029823;28;19925;-83
2022/08/16 03:39:06;;;;;;;;;;;20.30;99.90;;;;;;5017510;28;19932;-81
2022/08/16 03:41:31;;;;;;;;;;;20.30;99.90;;;;;;5021762;28;20026;-81
2022/08/16 03:43:57;;;;;;;;;;;20.30;99.90;;;;;;5016138;28;19928;-81
2022/08/16 03:46:23;;;;;;;;;;;20.20;99.90;;;;;;5049967;28;19925;-83
2022/08/16 03:48:49;;;;;;;;;;;20.20;99.90;;;;;;5020938;28;19935;-81
2022/08/16 03:51:16;;;;;;;;;;;20.20;99.90;;;;;;5016143;28;19960;-80
2022/08/16 03:53:43;;;;;;;;;;;20.10;99.90;;;;;;5043637;28;20349;-82
2022/08/16 03:56:09;;;;;;;;;;;20.10;99.90;;;;;;5043879;28;20560;-81
2022/08/16 03:58:35;;;;;;;;;;;20.10;99.90;;;;;;5049451;28;19932;-80
2022/08/16 04:01:02;;;;;;;;;;;20.10;99.90;;;;;;5012994;28;19924;-81
2022/08/16 04:03:28;;;;;;;;;;;20.00;99.90;;;;;;5052715;28;19924;-81
2022/08/16 04:09:06;;;;;;;;;;;19.90;99.90;;;;;;5061410;28;19962;-80
2022/08/16 04:15:04;;;;;;;;;;;19.80;99.90;;;;;;5071940;28;19927;-81
2022/08/16 04:17:31;;;;;;;;;;;19.70;99.90;;;;;;5069988;28;19975;-80
2022/08/16 04:19:59;;;;;;;;;;;19.80;99.90;;;;;;5057488;28;19936;-82
2022/08/16 04:25:42;;;;;;;;;;;19.70;99.90;;;;;;5072205;28;19953;-82
2022/08/16 04:29:03;;;;;;;;;;;19.70;99.90;;;;;;5059284;28;19924;-81
2022/08/16 04:38:07;;;;;;;;;;;19.60;99.90;;;;;;5079697;28;20061;-82
2022/08/16 04:41:06;;;;;;;;;;;19.60;99.90;;;;;;5057112;28;19927;-81
2022/08/16 04:43:45;;;;;;;;;;;19.50;99.90;;;;;;5058211;28;19927;-82
2022/08/16 04:46:13;;;;;;;;;;;19.50;99.90;;;;;;5046450;28;20007;-80
2022/08/16 04:48:40;;;;;;;;;;;19.50;99.90;;;;;;5044931;28;19930;-80
2022/08/16 04:51:06;;;;;;;;;;;19.50;99.90;;;;;;5065357;28;19935;-80
2022/08/16 04:53:32;;;;;;;;;;;19.40;99.90;;;;;;5028826;28;19928;-80
2022/08/16 04:55:59;;;;;;;;;;;19.50;99.90;;;;;;5048281;28;20386;-81
2022/08/16 04:58:25;;;;;;;;;;;19.50;99.90;;;;;;5056300;28;20001;-80
2022/08/16 05:03:56;;;;;;;;;;;19.60;99.90;;;;;;5054613;28;19928;-81
2022/08/16 05:06:51;;;;;;;;;;;19.60;99.90;;;;;;5061546;28;19926;-82
2022/08/16 05:12:37;;;;;;;;;;;19.70;99.90;;;;;;5073255;28;20381;-79
2022/08/16 05:15:04;;;;;;;;;;;19.70;99.90;;;;;;5063509;28;20434;-79
2022/08/16 05:17:30;;;;;;;;;;;19.70;99.90;;;;;;5069121;28;19970;-80
2022/08/16 05:19:56;;;;;;;;;;;19.80;99.90;;;;;;5065264;28;19920;-81
2022/08/16 05:22:22;;;;;;;;;;;19.80;99.90;;;;;;5069049;28;19942;-81
2022/08/16 05:24:48;;;;;;;;;;;19.80;99.90;;;;;;5051457;28;20383;-85
2022/08/16 05:27:14;;;;;;;;;;;19.90;99.90;;;;;;5052624;28;19977;-83
2022/08/16 05:29:40;;;;;;;;;;;19.90;99.90;;;;;;5036591;28;19924;-80
2022/08/16 05:38:59;;;;;;;;;;;20.00;99.90;;;;;;5091687;28;19919;-80
2022/08/16 05:41:52;;;;;;;;;;;19.90;99.90;;;;;;5073661;28;19950;-80
2022/08/16 05:44:33;;;;;;;;;;;20.00;99.90;;;;;;5062905;28;20015;-84
2022/08/16 05:46:59;;;;;;;;;;;20.00;99.90;;;;;;5051509;28;20027;-83
2022/08/16 05:49:26;;;;;;;;;;;20.10;99.90;;;;;;5068696;28;19928;-80
2022/08/16 05:51:54;;;;;;;;;;;20.10;99.90;;;;;;5047052;28;20385;-81
2022/08/16 05:54:20;;;;;;;;;;;20.20;99.90;;;;;;5035508;28;19924;-83
2022/08/16 05:56:46;;;;;;;;;;;20.20;99.90;;;;;;5043242;28;19986;-83
2022/08/16 05:59:13;;;;;;;;;;;20.30;99.90;;;;;;5034701;28;19976;-84
2022/08/16 06:01:42;;;;;;;;;;;20.30;99.90;;;;;;5045670;28;20304;-80
2022/08/16 06:04:26;;;;;;;;;;;20.40;99.90;;;;;;5052439;28;20400;-81
2022/08/16 06:06:52;;;;;;;;;;;20.40;99.90;;;;;;5068647;28;20026;-82
2022/08/16 06:09:18;;;;;;;;;;;20.50;99.90;;;;;;5055199;28;19998;-81
2022/08/16 06:11:44;;;;;;;;;;;20.50;99.90;;;;;;5052249;28;19924;-85
2022/08/16 06:14:10;;;;;;;;;;;20.60;99.90;;;;;;5034540;28;19920;-82
2022/08/16 06:16:36;;;;;;;;;;;20.70;99.90;;;;;;5019235;28;19978;-86
2022/08/16 06:19:05;;;;;;;;;;;20.70;99.90;;;;;;5036000;28;19936;-82
2022/08/16 06:21:31;;;;;;;;;;;20.80;99.90;;;;;;5053297;28;20446;-81
2022/08/16 06:23:56;;;;;;;;;;;20.80;99.90;;;;;;5019105;28;19982;-81
2022/08/16 06:26:22;;;;;;;;;;;20.90;99.90;;;;;;5052374;28;19986;-80
2022/08/16 06:28:48;;;;;;;;;;;21.00;99.90;;;;;;5051642;28;19936;-86
2022/08/16 06:31:14;;;;;;;;;;;21.10;99.90;;;;;;5049984;28;19979;-82
2022/08/16 06:33:41;;;;;;;;;;;21.20;99.90;;;;;;5051969;28;19931;-87
2022/08/16 06:36:07;;;;;;;;;;;21.30;99.90;;;;;;5024790;28;20669;-83
2022/08/16 06:38:34;;;;;;;;;;;21.40;99.90;;;;;;5050851;28;20275;-81
2022/08/16 06:41:02;;;;;;;;;;;21.60;99.90;;;;;;5035389;28;19978;-81
2022/08/16 06:43:28;;;;;;;;;;;21.70;99.90;;;;;;5051047;28;19963;-79
2022/08/16 06:45:54;;;;;;;;;;;21.90;99.90;;;;;;5051354;28;19967;-82
2022/08/16 06:48:20;;;;;;;;;;;22.20;99.90;;;;;;5035133;28;19964;-83
2022/08/16 06:50:50;;;;;;;;;;;22.50;99.90;;;;;;5052712;28;19931;-83
2022/08/16 06:53:17;;;;;;;;;;;22.60;99.90;;;;;;5029646;28;19924;-83
2022/08/16 06:55:43;;;;;;;;;;;22.60;99.90;;;;;;5041710;28;20019;-80
2022/08/16 06:58:09;;;;;;;;;;;22.70;99.90;;;;;;5051524;28;20007;-83
2022/08/16 07:00:36;;;;;;;;;;;22.80;99.90;;;;;;5033736;28;19939;-81
2022/08/16 07:03:02;;;;;;;;;;;22.90;99.90;;;;;;5051240;28;19935;-80
2022/08/16 07:05:30;;;;;;;;;;;23.10;99.90;;;;;;5051782;28;19928;-81
2022/08/16 07:07:56;;;;;;;;;;;23.30;99.90;;;;;;5035153;28;19925;-82
2022/08/16 07:10:22;;;;;;;;;;;23.50;99.90;;;;;;5049674;28;19974;-83
2022/08/16 07:12:49;;;;;;;;;;;23.90;99.90;;;;;;5034340;28;19929;-84
2022/08/16 07:15:18;;;;;;;;;;;24.50;99.90;;;;;;5031548;28;20061;-83
2022/08/16 07:17:45;;;;;;;;;;;25.10;99.90;;;;;;5048377;28;20307;-82
2022/08/16 07:20:12;;;;;;;;;;;25.70;99.90;;;;;;5028469;28;19924;-82
2022/08/16 07:22:41;;;;;;;;;;;26.30;99.90;;;;;;5041310;28;19924;-83
2022/08/16 07:25:11;;;;;;;;;;;26.90;99.90;;;;;;5087301;28;19968;-82
2022/08/16 07:27:38;;;;;;;;;;;27.40;99.90;;;;;;5059275;28;20023;-87
2022/08/16 07:30:08;;;;;;;;;;;27.90;99.90;;;;;;5079982;28;19932;-82
2022/08/16 07:32:34;;;;;;;;;;;28.30;99.90;;;;;;5051732;28;20007;-84
2022/08/16 07:35:00;;;;;;;;;;;28.90;99.90;;;;;;5070222;28;20088;-81
2022/08/16 07:37:26;;;;;;;;;;;29.30;99.90;;;;;;5054780;28;19924;-81
2022/08/16 07:39:52;;;;;;;;;;;29.60;99.90;;;;;;5074455;28;19925;-82
2022/08/16 07:42:18;;;;;;;;;;;30.00;99.90;;;;;;5071283;28;19924;-83
2022/08/16 07:44:44;;;;;;;;;;;30.40;99.90;;;;;;5052571;28;19920;-83
2022/08/16 07:47:10;;;;;;;;;;;30.80;99.40;;;;;;5059369;28;19924;-84
2022/08/16 07:49:35;;;;;;;;;;;31.00;97.70;;;;;;5086809;28;20023;-81
2022/08/16 07:52:01;;;;;;;;;;;31.20;95.80;;;;;;5054505;28;20013;-81
2022/08/16 07:54:27;;;;;;;;;;;31.00;95.50;;;;;;5062175;28;19965;-82
2022/08/16 07:56:53;;;;;;;;;;;30.80;94.50;;;;;;5070273;28;19928;-79
2022/08/16 07:59:18;;;;;;;;;;;30.80;94.00;;;;;;5051729;28;20024;-81
2022/08/16 08:01:44;;;;;;;;;;;30.90;94.20;;;;;;5051186;28;19924;-80
2022/08/16 08:04:12;;;;;;;;;;;31.00;93.40;;;;;;5069682;28;19928;-80
2022/08/16 08:06:38;;;;;;;;;;;31.00;93.50;;;;;;5062430;28;19935;-80
2022/08/16 08:09:04;;;;;;;;;;;30.90;92.90;;;;;;5051150;28;19931;-80
2022/08/16 08:11:30;;;;;;;;;;;30.90;91.60;;;;;;5051929;28;19928;-82
2022/08/16 08:13:58;;;;;;;;;;;30.80;92.20;;;;;;5068157;28;19961;-79
2022/08/16 08:16:24;;;;;;;;;;;31.00;90.70;;;;;;5042257;28;19931;-80
2022/08/16 08:18:53;;;;;;;;;;;31.00;90.60;;;;;;5068935;28;19989;-81
2022/08/16 08:21:20;;;;;;;;;;;31.20;90.90;;;;;;5069608;28;19935;-79
2022/08/16 08:23:47;;;;;;;;;;;31.30;90.50;;;;;;5068779;28;21469;-80
2022/08/16 08:26:13;;;;;;;;;;;31.40;90.30;;;;;;5069995;28;19932;-81
2022/08/16 08:28:39;;;;;;;;;;;31.50;89.90;;;;;;5068627;28;20548;-80
2022/08/16 08:31:06;;;;;;;;;;;31.70;90.10;;;;;;5051883;28;19959;-80
2022/08/16 08:33:32;;;;;;;;;;;31.70;89.10;;;;;;5067032;28;19932;-80
2022/08/16 08:35:59;;;;;;;;;;;31.80;87.40;;;;;;5051048;28;19951;-80
2022/08/16 08:38:26;;;;;;;;;;;31.80;87.10;;;;;;5069540;28;19953;-83
2022/08/16 08:40:52;;;;;;;;;;;31.90;86.70;;;;;;5036179;28;19924;-80
2022/08/16 08:43:18;;;;;;;;;;;32.00;88.00;;;;;;5059650;28;19935;-81
2022/08/16 08:45:45;;;;;;;;;;;32.20;86.10;;;;;;5065170;28;20019;-84
2022/08/16 08:48:11;;;;;;;;;;;32.30;86.70;;;;;;5052612;28;19972;-82
2022/08/16 08:50:37;;;;;;;;;;;32.40;85.30;;;;;;5046427;28;19929;-83
2022/08/16 08:53:03;;;;;;;;;;;32.40;83.90;;;;;;5035830;28;20469;-80
2022/08/16 08:55:30;;;;;;;;;;;32.30;83.60;;;;;;5060483;28;19972;-82
2022/08/16 08:57:56;;;;;;;;;;;32.30;84.30;;;;;;5033456;28;20302;-83
2022/08/16 09:00:25;;;;;;;;;;;32.10;82.40;;;;;;5050978;28;20015;-81
2022/08/16 09:02:50;;;;;;;;;;;31.80;84.30;;;;;;5066133;28;19942;-81
2022/08/16 09:05:17;;;;;;;;;;;31.70;83.30;;;;;;5069101;28;19932;-81
2022/08/16 09:07:43;;;;;;;;;;;;;;;;;;5057989;28;19924;-82
2022/08/16 09:10:09;;;;;;;;;;;31.10;84.60;;;;;;5068637;28;19928;-82
2022/08/16 09:12:37;;;;;;;;;;;30.80;83.10;;;;;;5068900;28;19936;-81
2022/08/16 09:15:06;;;;;;;;;;;30.60;86.20;;;;;;5067663;28;19924;-80
2022/08/16 09:17:32;;;;;;;;;;;30.40;85.30;;;;;;5066937;28;19974;-84
2022/08/16 09:19:57;;;;;;;;;;;30.30;83.80;;;;;;5044368;28;19963;-83
2022/08/16 09:22:24;;;;;;;;;;;30.10;83.90;;;;;;5052421;28;20494;-81
2022/08/16 09:24:50;;;;;;;;;;;30.10;85.90;;;;;;5040849;28;20006;-83
2022/08/16 09:27:16;;;;;;;;;;;30.10;87.00;;;;;;5050379;28;20017;-86
2022/08/16 09:29:43;;;;;;;;;;;30.10;86.20;;;;;;5067185;28;20450;-82
2022/08/16 09:32:09;;;;;;;;;;;30.10;86.70;;;;;;5068150;28;19970;-83
2022/08/16 09:34:34;;;;;;;;;;;30.10;86.50;;;;;;5068171;28;19967;-80
2022/08/16 09:37:00;;;;;;;;;;;30.10;85.90;;;;;;5069200;28;19982;-83
2022/08/16 09:39:26;;;;;;;;;;;30.10;85.70;;;;;;5068135;28;19951;-83
2022/08/16 09:41:55;;;;;;;;;;;30.30;85.10;;;;;;5052220;28;20344;-80
2022/08/16 09:44:24;;;;;;;;;;;30.30;84.30;;;;;;5067585;28;19928;-83
2022/08/16 09:46:54;;;;;;;;;;;30.40;84.40;;;;;;5067950;28;19924;-82
2022/08/16 09:49:20;;;;;;;;;;;30.30;84.80;;;;;;5052623;28;19955;-81
2022/08/16 09:51:53;;;;;;;;;;;30.40;83.40;;;;;;5068127;28;20283;-82
2022/08/16 09:54:20;;;;;;;;;;;30.50;83.70;;;;;;5064357;28;19924;-80
2022/08/16 09:56:46;;;;;;;;;;;30.50;80.90;;;;;;5068827;28;20345;-81
2022/08/16 09:59:14;;;;;;;;;;;30.60;80.50;;;;;;5063178;28;19924;-80
2022/08/16 10:01:41;;;;;;;;;;;30.70;81.90;;;;;;5060768;28;19924;-83
2022/08/16 10:04:07;;;;;;;;;;;30.80;82.30;;;;;;5062123;28;19924;-85
2022/08/16 10:06:33;;;;;;;;;;;31.00;80.90;;;;;;5051868;28;19959;-82
2022/08/16 10:09:04;;;;;;;;;;;31.00;81.40;;;;;;5068286;28;20098;-83
2022/08/16 10:14:14;;;;;;;;;;;31.20;82.00;;;;;;5063706;28;20544;-82
2022/08/16 10:16:39;;;;;;;;;;;31.30;81.10;;;;;;5057834;28;19924;-81
2022/08/16 10:19:08;;;;;;;;;;;31.40;78.50;;;;;;5027779;28;19928;-80
2022/08/16 10:21:34;;;;;;;;;;;31.40;79.60;;;;;;5063210;28;19928;-82
2022/08/16 10:24:01;;;;;;;;;;;31.40;80.70;;;;;;5065521;28;20326;-83
2022/08/16 10:26:28;;;;;;;;;;;31.40;78.70;;;;;;5051744;28;19931;-82
2022/08/16 10:28:54;;;;;;;;;;;31.60;81.10;;;;;;5066842;28;19928;-83
2022/08/16 10:31:20;;;;;;;;;;;31.70;78.30;;;;;;5061416;28;19933;-85
2022/08/16 10:33:45;;;;;;;;;;;31.60;77.80;;;;;;5048225;28;19928;-82
2022/08/16 10:36:12;;;;;;;;;;;31.70;78.60;;;;;;5044000;28;19935;-82
2022/08/16 10:38:39;;;;;;;;;;;31.80;79.70;;;;;;5080281;28;19928;-82
2022/08/16 10:41:06;;;;;;;;;;;31.80;78.70;;;;;;5051687;28;20528;-82
2022/08/16 10:43:35;;;;;;;;;;;31.80;78.40;;;;;;5064751;28;19925;-83
2022/08/16 10:46:02;;;;;;;;;;;31.70;78.70;;;;;;5051206;28;19993;-80
2022/08/16 10:48:28;;;;;;;;;;;31.70;78.60;;;;;;5048964;28;19978;-82
2022/08/16 10:51:12;;;;;;;;;;;31.90;79.60;;;;;;5067984;28;19936;-77
2022/08/16 10:53:38;;;;;;;;;;;31.80;78.50;;;;;;5067511;28;19935;-80
2022/08/16 10:56:07;;;;;;;;;;;31.80;78.30;;;;;;5050896;28;19931;-83
2022/08/16 10:58:33;;;;;;;;;;;31.80;77.70;;;;;;5045316;28;19975;-80
2022/08/16 11:00:59;;;;;;;;;;;31.90;77.30;;;;;;5065065;28;20424;-83
2022/08/16 11:03:27;;;;;;;;;;;32.10;77.20;;;;;;5061943;28;19932;-83
2022/08/16 11:05:53;;;;;;;;;;;32.10;78.50;;;;;;5054676;28;19928;-82
2022/08/16 11:08:20;;;;;;;;;;;32.10;77.70;;;;;;5071140;28;19924;-81
2022/08/16 11:10:46;;;;;;;;;;;32.10;77.30;;;;;;5053411;28;20433;-82
2022/08/16 11:13:16;;;;;;;;;;;32.20;78.50;;;;;;5054787;28;19931;-82
2022/08/16 11:15:43;;;;;;;;;;;32.30;77.90;;;;;;5069225;28;19928;-83
2022/08/16 11:18:09;;;;;;;;;;;32.30;77.90;;;;;;5071127;28;19924;-80
2022/08/16 11:20:35;;;;;;;;;;;32.40;77.60;;;;;;5053853;28;20018;-83
2022/08/16 11:23:01;;;;;;;;;;;32.50;77.50;;;;;;5054329;28;20018;-81
2022/08/16 11:25:27;;;;;;;;;;;32.50;77.30;;;;;;5053763;28;20573;-81
2022/08/16 11:27:54;;;;;;;;;;;32.50;77.70;;;;;;5071246;28;19935;-87
2022/08/16 11:30:21;;;;;;;;;;;32.40;76.80;;;;;;5065896;28;19984;-86
2022/08/16 11:32:47;;;;;;;;;;;32.30;75.60;;;;;;5054003;28;19931;-82
2022/08/16 11:35:15;;;;;;;;;;;32.20;77.20;;;;;;5052415;28;19927;-81
2022/08/16 11:37:49;;;;;;;;;;;32.30;77.80;;;;;;5054503;28;19978;-81
2022/08/16 11:40:15;;;;;;;;;;;32.20;77.70;;;;;;5069843;28;19928;-83
2022/08/16 11:42:44;;;;;;;;;;;32.10;77.20;;;;;;5088590;28;19928;-81
2022/08/16 11:45:10;;;;;;;;;;;32.00;77.60;;;;;;5052768;28;20276;-84
2022/08/16 11:47:36;;;;;;;;;;;31.80;77.50;;;;;;5051029;28;20020;-85
2022/08/16 11:50:06;;;;;;;;;;;31.70;76.90;;;;;;5066722;28;20380;-83
2022/08/16 11:52:32;;;;;;;;;;;31.60;77.80;;;;;;5067377;28;19929;-82
2022/08/16 11:54:57;;;;;;;;;;;31.60;78.20;;;;;;5035683;28;19997;-84
2022/08/16 11:57:29;;;;;;;;;;;31.50;77.70;;;;;;5054275;28;19930;-89
2022/08/16 11:59:55;;;;;;;;;;;31.40;77.00;;;;;;5050360;28;19986;-83
2022/08/16 12:02:21;;;;;;;;;;;31.40;77.10;;;;;;5066206;28;20007;-85
2022/08/16 12:04:47;;;;;;;;;;;31.20;76.60;;;;;;5052676;28;19935;-87
2022/08/16 12:07:13;;;;;;;;;;;31.20;77.30;;;;;;5047853;28;20015;-84
2022/08/16 12:09:39;;;;;;;;;;;31.00;76.20;;;;;;5069248;28;20015;-86
2022/08/16 12:12:05;;;;;;;;;;;30.90;76.90;;;;;;5054239;28;19932;-83
2022/08/16 12:14:31;;;;;;;;;;;30.80;76.90;;;;;;5063062;28;20372;-82
2022/08/16 12:16:58;;;;;;;;;;;30.60;78.40;;;;;;5062848;28;20016;-83
2022/08/16 12:19:24;;;;;;;;;;;30.60;78.40;;;;;;5063610;28;19924;-82
2022/08/16 12:21:50;;;;;;;;;;;30.60;79.10;;;;;;5037583;28;19953;-82
2022/08/16 12:24:16;;;;;;;;;;;30.50;79.50;;;;;;5047964;28;19990;-88
2022/08/16 12:26:42;;;;;;;;;;;30.30;78.50;;;;;;5046355;28;20395;-88
2022/08/16 12:29:07;;;;;;;;;;;30.10;78.90;;;;;;5061686;28;20022;-83
2022/08/16 12:31:34;;;;;;;;;;;30.00;79.20;;;;;;5050757;28;19975;-82
2022/08/16 12:34:00;;;;;;;;;;;30.00;79.70;;;;;;5059569;28;19931;-83
2022/08/16 12:36:26;;;;;;;;;;;29.90;80.80;;;;;;5051248;28;20295;-81
2022/08/16 12:38:53;;;;;;;;;;;30.00;80.40;;;;;;5069468;28;19951;-85
2022/08/16 12:41:20;;;;;;;;;;;29.90;81.10;;;;;;5035225;28;19928;-83
2022/08/16 12:43:46;;;;;;;;;;;29.80;81.00;;;;;;5040114;28;20367;-84
2022/08/16 12:46:12;;;;;;;;;;;29.80;81.00;;;;;;5037550;28;19932;-87
2022/08/16 12:51:26;;;;;;;;;;;29.60;79.00;;;;;;5064956;28;19928;-83
2022/08/16 12:53:53;;;;;;;;;;;29.60;80.40;;;;;;5060744;28;20287;-85
2022/08/16 12:56:20;;;;;;;;;;;29.60;81.10;;;;;;5054779;28;19924;-85
2022/08/16 12:58:49;;;;;;;;;;;29.50;80.30;;;;;;5061674;28;19928;-87
2022/08/16 13:01:20;;;;;;;;;;;29.50;80.40;;;;;;5051988;28;20307;-85
2022/08/16 13:03:45;;;;;;;;;;;29.50;80.00;;;;;;5044003;28;19928;-82
2022/08/16 13:06:12;;;;;;;;;;;29.40;79.50;;;;;;5037231;28;20031;-83
2022/08/16 13:08:37;;;;;;;;;;;29.30;80.20;;;;;;5050587;28;19928;-82
2022/08/16 13:11:04;;;;;;;;;;;29.20;79.40;;;;;;5062719;28;19924;-84
2022/08/16 13:13:32;;;;;;;;;;;29.10;79.80;;;;;;5068441;28;19924;-79
2022/08/16 13:15:59;;;;;;;;;;;28.80;79.40;;;;;;5038378;28;19930;-83
2022/08/16 13:18:28;;;;;;;;;;;28.70;80.80;;;;;;5058020;28;19932;-83
2022/08/16 13:20:54;;;;;;;;;;;28.70;80.40;;;;;;5064467;28;19946;-84
2022/08/16 13:23:19;;;;;;;;;;;28.60;80.80;;;;;;5050920;28;19928;-83
2022/08/16 13:25:47;;;;;;;;;;;28.60;81.70;;;;;;5065539;28;20341;-86
2022/08/16 13:28:13;;;;;;;;;;;28.60;82.00;;;;;;5067353;28;20056;-81
2022/08/16 13:30:40;;;;;;;;;;;28.50;82.80;;;;;;5045871;28;20025;-80
2022/08/16 13:33:07;;;;;;;;;;;28.50;82.90;;;;;;5046528;28;19970;-82
2022/08/16 13:35:33;;;;;;;;;;;28.40;82.80;;;;;;5056502;28;19928;-82
2022/08/16 13:37:59;;;;;;;;;;;28.40;83.50;;;;;;5032160;28;19928;-83
2022/08/16 13:40:24;;;;;;;;;;;28.30;84.50;;;;;;5032289;28;20296;-82
2022/08/16 13:42:53;;;;;;;;;;;28.30;85.80;;;;;;5040903;28;19946;-82
2022/08/16 13:45:19;;;;;;;;;;;28.30;86.60;;;;;;5046057;28;19931;-79
2022/08/16 13:47:46;;;;;;;;;;;28.20;87.50;;;;;;5040257;28;19925;-79
2022/08/16 13:50:12;;;;;;;;;;;28.10;87.50;;;;;;5035280;28;20011;-81
2022/08/16 13:52:41;;;;;;;;;;;28.00;87.80;;;;;;5056733;28;20008;-79
2022/08/16 13:55:07;;;;;;;;;;;27.90;89.10;;;;;;5054800;28;19934;-82
2022/08/16 13:57:33;;;;;;;;;;;27.90;89.10;;;;;;5042825;28;19954;-82
2022/08/16 13:59:59;;;;;;;;;;;27.90;89.40;;;;;;5058753;28;20312;-81
2022/08/16 14:02:25;;;;;;;;;;;27.90;89.20;;;;;;5050658;28;20014;-82
2022/08/16 14:04:51;;;;;;;;;;;28.00;90.20;;;;;;5032583;28;20019;-81
2022/08/16 14:07:17;;;;;;;;;;;28.10;90.20;;;;;;5066782;28;19935;-85
2022/08/16 14:09:43;;;;;;;;;;;28.10;89.90;;;;;;5050370;28;19928;-81
2022/08/16 14:12:22;;;;;;;;;;;28.00;87.50;;;;;;5045796;28;19932;-82
2022/08/16 14:14:49;;;;;;;;;;;28.00;87.70;;;;;;5048956;28;20097;-81
2022/08/16 14:17:15;;;;;;;;;;;28.00;88.10;;;;;;5057546;28;19931;-80
2022/08/16 14:19:41;;;;;;;;;;;28.00;86.20;;;;;;5066148;28;19946;-87
2022/08/16 14:22:08;;;;;;;;;;;27.90;85.50;;;;;;5056414;28;19975;-82
2022/08/16 14:24:35;;;;;;;;;;;27.90;85.70;;;;;;5085214;28;19981;-84
2022/08/16 14:27:04;;;;;;;;;;;28.00;87.40;;;;;;5067727;28;20018;-88
2022/08/16 14:29:30;;;;;;;;;;;28.00;87.50;;;;;;5044662;28;19950;-86
2022/08/16 14:31:57;;;;;;;;;;;27.90;87.90;;;;;;5050257;28;21101;-84
2022/08/16 14:34:23;;;;;;;;;;;27.80;86.90;;;;;;5058852;28;20382;-81
2022/08/16 14:36:48;;;;;;;;;;;27.80;86.60;;;;;;5070669;28;19927;-83
2022/08/16 14:39:14;;;;;;;;;;;27.70;87.60;;;;;;5071540;28;20319;-81
2022/08/16 14:41:40;;;;;;;;;;;27.70;89.10;;;;;;5052454;28;19924;-85
2022/08/16 14:44:06;;;;;;;;;;;27.70;90.20;;;;;;5061001;28;19939;-79
2022/08/16 14:46:32;;;;;;;;;;;27.70;90.30;;;;;;5053954;28;19924;-79
2022/08/16 14:48:58;;;;;;;;;;;27.60;90.50;;;;;;5065928;28;19924;-90
2022/08/16 14:51:24;;;;;;;;;;;27.50;90.40;;;;;;5035810;28;20284;-80
2022/08/16 14:53:50;;;;;;;;;;;27.50;91.00;;;;;;5043463;28;19921;-84
2022/08/16 14:56:16;;;;;;;;;;;27.50;90.60;;;;;;5034559;28;20384;-81
2022/08/16 14:58:42;;;;;;;;;;;27.30;90.60;;;;;;5032557;28;19928;-83
2022/08/16 15:01:08;;;;;;;;;;;27.20;90.50;;;;;;5053032;28;19929;-81
2022/08/16 15:03:33;;;;;;;;;;;27.10;90.90;;;;;;5044296;28;19983;-82
2022/08/16 15:05:59;;;;;;;;;;;27.10;91.00;;;;;;5052024;28;20016;-84